sensor_id;sensor_type;location;lat;lon;timestamp;P1;durP1;ratioP1;P2;durP2;ratioP2
17372;SDS011;8803;48.116;11.590;2023-06-22T00:01:00;7.95;;;4.62;;
17372;SDS011;8803;48.116;11.590;2023-06-22T00:03:04;6.20;;;3.72;;
17372;SDS011;8803;48.116;11.590;2023-06-22T00:07:20;7.05;;;4.35;;
17372;SDS011;8803;48.116;11.590;2023-06-22T00:09:25;5.12;;;3.77;;
17372;SDS011;8803;48.116;11.590;2023-06-22T00:11:29;5.30;;;3.77;;
17372;SDS011;8803;48.116;11.590;2023-06-22T00:13:42;6.25;;;3.83;;
17372;SDS011;8803;48.116;11.590;2023-06-22T00:15:46;9.48;;;3.90;;
17372;SDS011;8803;48.116;11.590;2023-06-22T00:17:59;6.20;;;3.85;;
17372;SDS011;8803;48.116;11.590;2023-06-22T00:20:04;8.75;;;4.12;;
17372;SDS011;8803;48.116;11.590;2023-06-22T00:22:11;5.62;;;3.75;;
17372;SDS011;8803;48.116;11.590;2023-06-22T00:24:15;7.17;;;4.35;;
17372;SDS011;8803;48.116;11.590;2023-06-22T00:26:19;8.95;;;4.70;;
17372;SDS011;8803;48.116;11.590;2023-06-22T00:28:31;7.70;;;4.20;;
17372;SDS011;8803;48.116;11.590;2023-06-22T00:30:35;7.10;;;4.00;;
17372;SDS011;8803;48.116;11.590;2023-06-22T00:32:39;7.37;;;4.30;;
17372;SDS011;8803;48.116;11.590;2023-06-22T00:34:43;5.25;;;3.98;;
17372;SDS011;8803;48.116;11.590;2023-06-22T00:36:47;6.73;;;4.20;;
17372;SDS011;8803;48.116;11.590;2023-06-22T00:39:00;6.53;;;4.10;;
17372;SDS011;8803;48.116;11.590;2023-06-22T00:41:05;6.22;;;4.58;;
17372;SDS011;8803;48.116;11.590;2023-06-22T00:43:09;8.23;;;4.40;;
17372;SDS011;8803;48.116;11.590;2023-06-22T00:45:13;5.62;;;3.98;;
17372;SDS011;8803;48.116;11.590;2023-06-22T00:47:26;6.12;;;4.20;;
17372;SDS011;8803;48.116;11.590;2023-06-22T00:49:30;6.22;;;4.67;;
17372;SDS011;8803;48.116;11.590;2023-06-22T00:51:34;10.08;;;4.60;;
17372;SDS011;8803;48.116;11.590;2023-06-22T00:53:39;6.83;;;4.40;;
17372;SDS011;8803;48.116;11.590;2023-06-22T00:55:44;7.12;;;4.40;;
17372;SDS011;8803;48.116;11.590;2023-06-22T00:57:57;7.12;;;3.90;;
17372;SDS011;8803;48.116;11.590;2023-06-22T01:00:01;5.70;;;3.75;;
17372;SDS011;8803;48.116;11.590;2023-06-22T01:02:08;8.20;;;4.37;;
17372;SDS011;8803;48.116;11.590;2023-06-22T01:04:11;7.92;;;4.15;;
17372;SDS011;8803;48.116;11.590;2023-06-22T01:06:26;8.05;;;4.65;;
17372;SDS011;8803;48.116;11.590;2023-06-22T01:08:36;5.80;;;4.25;;
17372;SDS011;8803;48.116;11.590;2023-06-22T01:10:50;8.83;;;4.37;;
17372;SDS011;8803;48.116;11.590;2023-06-22T01:12:58;7.85;;;4.03;;
17372;SDS011;8803;48.116;11.590;2023-06-22T01:17:16;5.92;;;4.30;;
17372;SDS011;8803;48.116;11.590;2023-06-22T01:19:35;7.90;;;4.35;;
17372;SDS011;8803;48.116;11.590;2023-06-22T01:21:42;7.17;;;4.33;;
17372;SDS011;8803;48.116;11.590;2023-06-22T01:23:51;5.28;;;4.15;;
17372;SDS011;8803;48.116;11.590;2023-06-22T01:26:04;5.75;;;4.03;;
17372;SDS011;8803;48.116;11.590;2023-06-22T01:28:20;6.67;;;3.72;;
17372;SDS011;8803;48.116;11.590;2023-06-22T01:30:37;9.98;;;4.22;;
17372;SDS011;8803;48.116;11.590;2023-06-22T01:32:41;7.92;;;4.12;;
17372;SDS011;8803;48.116;11.590;2023-06-22T01:34:55;6.17;;;4.08;;
17372;SDS011;8803;48.116;11.590;2023-06-22T01:37:00;6.65;;;3.85;;
17372;SDS011;8803;48.116;11.590;2023-06-22T01:39:14;8.35;;;4.08;;
17372;SDS011;8803;48.116;11.590;2023-06-22T01:41:19;7.87;;;4.42;;
17372;SDS011;8803;48.116;11.590;2023-06-22T01:43:25;7.08;;;4.53;;
17372;SDS011;8803;48.116;11.590;2023-06-22T01:45:30;5.03;;;3.98;;
17372;SDS011;8803;48.116;11.590;2023-06-22T01:47:44;7.92;;;4.33;;
17372;SDS011;8803;48.116;11.590;2023-06-22T01:49:48;6.03;;;4.47;;
17372;SDS011;8803;48.116;11.590;2023-06-22T01:52:01;6.85;;;4.35;;
17372;SDS011;8803;48.116;11.590;2023-06-22T01:54:06;6.45;;;4.35;;
17372;SDS011;8803;48.116;11.590;2023-06-22T01:56:10;6.83;;;4.00;;
17372;SDS011;8803;48.116;11.590;2023-06-22T01:58:23;7.25;;;4.17;;
17372;SDS011;8803;48.116;11.590;2023-06-22T02:00:30;6.20;;;4.42;;
17372;SDS011;8803;48.116;11.590;2023-06-22T02:02:36;8.98;;;4.30;;
17372;SDS011;8803;48.116;11.590;2023-06-22T02:04:52;8.45;;;4.70;;
17372;SDS011;8803;48.116;11.590;2023-06-22T02:09:11;7.53;;;4.10;;
17372;SDS011;8803;48.116;11.590;2023-06-22T02:11:18;7.05;;;4.03;;
17372;SDS011;8803;48.116;11.590;2023-06-22T02:13:24;6.78;;;4.33;;
17372;SDS011;8803;48.116;11.590;2023-06-22T02:15:28;8.80;;;4.97;;
17372;SDS011;8803;48.116;11.590;2023-06-22T02:17:44;5.15;;;3.95;;
17372;SDS011;8803;48.116;11.590;2023-06-22T02:19:47;7.17;;;4.40;;
17372;SDS011;8803;48.116;11.590;2023-06-22T02:21:51;8.58;;;4.67;;
17372;SDS011;8803;48.116;11.590;2023-06-22T02:23:55;8.93;;;4.65;;
17372;SDS011;8803;48.116;11.590;2023-06-22T02:25:59;9.15;;;4.97;;
17372;SDS011;8803;48.116;11.590;2023-06-22T02:28:12;8.30;;;5.05;;
17372;SDS011;8803;48.116;11.590;2023-06-22T02:30:16;8.10;;;5.55;;
17372;SDS011;8803;48.116;11.590;2023-06-22T02:32:20;10.13;;;5.53;;
17372;SDS011;8803;48.116;11.590;2023-06-22T02:34:23;8.95;;;5.47;;
17372;SDS011;8803;48.116;11.590;2023-06-22T02:36:27;6.33;;;4.85;;
17372;SDS011;8803;48.116;11.590;2023-06-22T02:38:41;9.45;;;5.25;;
17372;SDS011;8803;48.116;11.590;2023-06-22T02:40:47;9.68;;;5.45;;
17372;SDS011;8803;48.116;11.590;2023-06-22T02:42:51;6.83;;;4.90;;
17372;SDS011;8803;48.116;11.590;2023-06-22T02:44:55;9.15;;;5.05;;
17372;SDS011;8803;48.116;11.590;2023-06-22T02:46:59;9.18;;;4.67;;
17372;SDS011;8803;48.116;11.590;2023-06-22T02:49:12;6.78;;;5.15;;
17372;SDS011;8803;48.116;11.590;2023-06-22T02:51:16;7.42;;;4.60;;
17372;SDS011;8803;48.116;11.590;2023-06-22T02:53:28;7.55;;;4.58;;
17372;SDS011;8803;48.116;11.590;2023-06-22T02:55:33;7.40;;;4.60;;
17372;SDS011;8803;48.116;11.590;2023-06-22T02:57:46;8.88;;;4.60;;
17372;SDS011;8803;48.116;11.590;2023-06-22T02:59:51;7.65;;;4.83;;
17372;SDS011;8803;48.116;11.590;2023-06-22T03:02:05;5.70;;;4.40;;
17372;SDS011;8803;48.116;11.590;2023-06-22T03:04:09;7.58;;;4.62;;
17372;SDS011;8803;48.116;11.590;2023-06-22T03:08:26;7.70;;;4.65;;
17372;SDS011;8803;48.116;11.590;2023-06-22T03:10:30;7.35;;;4.35;;
17372;SDS011;8803;48.116;11.590;2023-06-22T03:12:34;9.98;;;5.42;;
17372;SDS011;8803;48.116;11.590;2023-06-22T03:14:38;8.15;;;4.42;;
17372;SDS011;8803;48.116;11.590;2023-06-22T03:16:42;7.17;;;4.83;;
17372;SDS011;8803;48.116;11.590;2023-06-22T03:18:55;7.97;;;4.95;;
17372;SDS011;8803;48.116;11.590;2023-06-22T03:20:58;6.33;;;4.95;;
17372;SDS011;8803;48.116;11.590;2023-06-22T03:23:03;7.60;;;4.85;;
17372;SDS011;8803;48.116;11.590;2023-06-22T03:25:08;9.15;;;5.40;;
17372;SDS011;8803;48.116;11.590;2023-06-22T03:27:21;9.03;;;4.85;;
17372;SDS011;8803;48.116;11.590;2023-06-22T03:29:25;6.62;;;4.83;;
17372;SDS011;8803;48.116;11.590;2023-06-22T03:31:31;8.53;;;5.43;;
17372;SDS011;8803;48.116;11.590;2023-06-22T03:33:35;9.80;;;4.90;;
17372;SDS011;8803;48.116;11.590;2023-06-22T03:35:47;9.03;;;5.50;;
17372;SDS011;8803;48.116;11.590;2023-06-22T03:37:51;8.88;;;5.60;;
17372;SDS011;8803;48.116;11.590;2023-06-22T03:40:05;7.42;;;4.78;;
17372;SDS011;8803;48.116;11.590;2023-06-22T03:42:10;8.50;;;5.47;;
17372;SDS011;8803;48.116;11.590;2023-06-22T03:44:14;9.20;;;5.50;;
17372;SDS011;8803;48.116;11.590;2023-06-22T03:46:18;6.47;;;4.80;;
17372;SDS011;8803;48.116;11.590;2023-06-22T03:48:31;6.55;;;4.75;;
17372;SDS011;8803;48.116;11.590;2023-06-22T03:50:35;6.40;;;4.70;;
17372;SDS011;8803;48.116;11.590;2023-06-22T03:52:39;6.75;;;4.90;;
17372;SDS011;8803;48.116;11.590;2023-06-22T03:54:43;8.83;;;5.80;;
17372;SDS011;8803;48.116;11.590;2023-06-22T03:56:47;6.45;;;5.42;;
17372;SDS011;8803;48.116;11.590;2023-06-22T03:59:00;9.15;;;5.17;;
17372;SDS011;8803;48.116;11.590;2023-06-22T04:01:03;7.17;;;4.92;;
17372;SDS011;8803;48.116;11.590;2023-06-22T04:03:16;6.53;;;5.22;;
17372;SDS011;8803;48.116;11.590;2023-06-22T04:05:21;6.17;;;4.92;;
17372;SDS011;8803;48.116;11.590;2023-06-22T04:07:34;8.10;;;5.50;;
17372;SDS011;8803;48.116;11.590;2023-06-22T04:09:38;9.55;;;5.85;;
17372;SDS011;8803;48.116;11.590;2023-06-22T04:11:42;8.30;;;5.70;;
17372;SDS011;8803;48.116;11.590;2023-06-22T04:13:46;8.65;;;5.78;;
17372;SDS011;8803;48.116;11.590;2023-06-22T04:15:52;11.38;;;5.87;;
17372;SDS011;8803;48.116;11.590;2023-06-22T04:18:05;8.93;;;6.40;;
17372;SDS011;8803;48.116;11.590;2023-06-22T04:20:09;8.18;;;5.55;;
17372;SDS011;8803;48.116;11.590;2023-06-22T04:22:22;7.97;;;5.60;;
17372;SDS011;8803;48.116;11.590;2023-06-22T04:24:26;9.00;;;5.50;;
17372;SDS011;8803;48.116;11.590;2023-06-22T04:26:29;9.23;;;5.72;;
17372;SDS011;8803;48.116;11.590;2023-06-22T04:28:42;8.40;;;5.50;;
17372;SDS011;8803;48.116;11.590;2023-06-22T04:30:51;11.20;;;7.15;;
17372;SDS011;8803;48.116;11.590;2023-06-22T04:32:56;10.45;;;6.12;;
17372;SDS011;8803;48.116;11.590;2023-06-22T04:35:05;9.10;;;5.80;;
17372;SDS011;8803;48.116;11.590;2023-06-22T04:37:18;8.83;;;5.50;;
17372;SDS011;8803;48.116;11.590;2023-06-22T04:41:35;7.60;;;5.55;;
17372;SDS011;8803;48.116;11.590;2023-06-22T04:43:48;7.10;;;5.70;;
17372;SDS011;8803;48.116;11.590;2023-06-22T04:45:53;7.05;;;5.25;;
17372;SDS011;8803;48.116;11.590;2023-06-22T04:48:06;10.32;;;5.92;;
17372;SDS011;8803;48.116;11.590;2023-06-22T04:50:10;12.07;;;6.53;;
17372;SDS011;8803;48.116;11.590;2023-06-22T04:52:23;6.42;;;5.62;;
17372;SDS011;8803;48.116;11.590;2023-06-22T04:54:27;9.80;;;6.47;;
17372;SDS011;8803;48.116;11.590;2023-06-22T04:56:32;11.33;;;6.08;;
17372;SDS011;8803;48.116;11.590;2023-06-22T04:58:45;8.03;;;5.47;;
17372;SDS011;8803;48.116;11.590;2023-06-22T05:00:49;12.70;;;6.00;;
17372;SDS011;8803;48.116;11.590;2023-06-22T05:02:53;8.53;;;5.67;;
17372;SDS011;8803;48.116;11.590;2023-06-22T05:04:58;6.70;;;5.50;;
17372;SDS011;8803;48.116;11.590;2023-06-22T05:07:06;8.30;;;6.30;;
17372;SDS011;8803;48.116;11.590;2023-06-22T05:09:19;9.98;;;5.53;;
17372;SDS011;8803;48.116;11.590;2023-06-22T05:11:24;8.85;;;6.22;;
17372;SDS011;8803;48.116;11.590;2023-06-22T05:13:28;10.28;;;7.00;;
17372;SDS011;8803;48.116;11.590;2023-06-22T05:15:32;7.17;;;6.05;;
17372;SDS011;8803;48.116;11.590;2023-06-22T05:17:45;11.55;;;6.80;;
17372;SDS011;8803;48.116;11.590;2023-06-22T05:19:48;12.05;;;6.95;;
17372;SDS011;8803;48.116;11.590;2023-06-22T05:22:01;11.90;;;6.55;;
17372;SDS011;8803;48.116;11.590;2023-06-22T05:24:07;10.00;;;6.35;;
17372;SDS011;8803;48.116;11.590;2023-06-22T05:28:24;10.48;;;6.12;;
17372;SDS011;8803;48.116;11.590;2023-06-22T05:30:28;10.40;;;6.78;;
17372;SDS011;8803;48.116;11.590;2023-06-22T05:32:32;9.45;;;6.25;;
17372;SDS011;8803;48.116;11.590;2023-06-22T05:34:35;10.48;;;6.72;;
17372;SDS011;8803;48.116;11.590;2023-06-22T05:36:39;10.50;;;7.25;;
17372;SDS011;8803;48.116;11.590;2023-06-22T05:38:52;10.90;;;6.97;;
17372;SDS011;8803;48.116;11.590;2023-06-22T05:40:56;12.88;;;7.05;;
17372;SDS011;8803;48.116;11.590;2023-06-22T05:43:00;9.25;;;6.33;;
17372;SDS011;8803;48.116;11.590;2023-06-22T05:45:05;12.37;;;8.15;;
17372;SDS011;8803;48.116;11.590;2023-06-22T05:47:18;9.45;;;6.58;;
17372;SDS011;8803;48.116;11.590;2023-06-22T05:49:23;8.50;;;6.85;;
17372;SDS011;8803;48.116;11.590;2023-06-22T05:51:31;11.95;;;6.65;;
17372;SDS011;8803;48.116;11.590;2023-06-22T05:53:34;13.18;;;7.65;;
17372;SDS011;8803;48.116;11.590;2023-06-22T05:55:48;10.72;;;7.08;;
17372;SDS011;8803;48.116;11.590;2023-06-22T05:57:52;12.53;;;7.33;;
17372;SDS011;8803;48.116;11.590;2023-06-22T06:00:06;14.30;;;7.00;;
17372;SDS011;8803;48.116;11.590;2023-06-22T06:02:12;10.93;;;7.53;;
17372;SDS011;8803;48.116;11.590;2023-06-22T06:04:17;11.93;;;6.37;;
17372;SDS011;8803;48.116;11.590;2023-06-22T06:06:29;10.18;;;6.70;;
17372;SDS011;8803;48.116;11.590;2023-06-22T06:08:35;11.12;;;7.15;;
17372;SDS011;8803;48.116;11.590;2023-06-22T06:10:49;9.38;;;7.28;;
17372;SDS011;8803;48.116;11.590;2023-06-22T06:12:54;10.20;;;5.92;;
17372;SDS011;8803;48.116;11.590;2023-06-22T06:15:07;8.13;;;5.95;;
17372;SDS011;8803;48.116;11.590;2023-06-22T06:17:12;9.00;;;6.55;;
17372;SDS011;8803;48.116;11.590;2023-06-22T06:19:24;13.90;;;7.25;;
17372;SDS011;8803;48.116;11.590;2023-06-22T06:21:28;10.58;;;7.60;;
17372;SDS011;8803;48.116;11.590;2023-06-22T06:23:32;7.72;;;6.40;;
17372;SDS011;8803;48.116;11.590;2023-06-22T06:25:36;11.63;;;6.40;;
17372;SDS011;8803;48.116;11.590;2023-06-22T06:27:50;13.83;;;7.12;;
17372;SDS011;8803;48.116;11.590;2023-06-22T06:29:56;12.03;;;6.50;;
17372;SDS011;8803;48.116;11.590;2023-06-22T06:32:00;8.93;;;5.90;;
17372;SDS011;8803;48.116;11.590;2023-06-22T06:34:04;8.43;;;5.85;;
17372;SDS011;8803;48.116;11.590;2023-06-22T06:36:08;11.70;;;7.10;;
17372;SDS011;8803;48.116;11.590;2023-06-22T06:38:21;9.05;;;5.92;;
17372;SDS011;8803;48.116;11.590;2023-06-22T06:40:25;10.08;;;6.97;;
17372;SDS011;8803;48.116;11.590;2023-06-22T06:42:29;10.45;;;6.75;;
17372;SDS011;8803;48.116;11.590;2023-06-22T06:44:33;11.65;;;6.42;;
17372;SDS011;8803;48.116;11.590;2023-06-22T06:46:38;10.38;;;6.58;;
17372;SDS011;8803;48.116;11.590;2023-06-22T06:48:51;10.60;;;7.08;;
17372;SDS011;8803;48.116;11.590;2023-06-22T06:50:55;11.35;;;6.87;;
17372;SDS011;8803;48.116;11.590;2023-06-22T06:52:59;11.85;;;6.95;;
17372;SDS011;8803;48.116;11.590;2023-06-22T06:55:13;11.57;;;7.58;;
17372;SDS011;8803;48.116;11.590;2023-06-22T06:57:17;10.70;;;6.60;;
17372;SDS011;8803;48.116;11.590;2023-06-22T06:59:30;10.88;;;6.87;;
17372;SDS011;8803;48.116;11.590;2023-06-22T07:01:34;10.08;;;6.65;;
17372;SDS011;8803;48.116;11.590;2023-06-22T07:03:47;11.38;;;7.25;;
17372;SDS011;8803;48.116;11.590;2023-06-22T07:05:51;12.20;;;7.53;;
17372;SDS011;8803;48.116;11.590;2023-06-22T07:07:54;10.95;;;7.65;;
17372;SDS011;8803;48.116;11.590;2023-06-22T07:10:08;11.80;;;7.05;;
17372;SDS011;8803;48.116;11.590;2023-06-22T07:12:14;10.18;;;6.83;;
17372;SDS011;8803;48.116;11.590;2023-06-22T07:14:17;10.60;;;6.50;;
17372;SDS011;8803;48.116;11.590;2023-06-22T07:16:31;11.38;;;7.00;;
17372;SDS011;8803;48.116;11.590;2023-06-22T07:18:34;12.53;;;6.83;;
17372;SDS011;8803;48.116;11.590;2023-06-22T07:20:47;14.98;;;6.90;;
17372;SDS011;8803;48.116;11.590;2023-06-22T07:22:51;11.70;;;6.65;;
17372;SDS011;8803;48.116;11.590;2023-06-22T07:24:55;12.70;;;7.28;;
17372;SDS011;8803;48.116;11.590;2023-06-22T07:27:08;9.60;;;7.12;;
17372;SDS011;8803;48.116;11.590;2023-06-22T07:29:13;11.95;;;7.10;;
17372;SDS011;8803;48.116;11.590;2023-06-22T07:31:17;11.15;;;7.40;;
17372;SDS011;8803;48.116;11.590;2023-06-22T07:33:21;12.28;;;7.35;;
17372;SDS011;8803;48.116;11.590;2023-06-22T07:35:24;11.53;;;7.72;;
17372;SDS011;8803;48.116;11.590;2023-06-22T07:37:29;15.28;;;8.00;;
17372;SDS011;8803;48.116;11.590;2023-06-22T07:39:42;12.00;;;6.72;;
17372;SDS011;8803;48.116;11.590;2023-06-22T07:41:46;11.28;;;6.70;;
17372;SDS011;8803;48.116;11.590;2023-06-22T07:43:58;14.98;;;7.47;;
17372;SDS011;8803;48.116;11.590;2023-06-22T07:46:02;11.35;;;7.22;;
17372;SDS011;8803;48.116;11.590;2023-06-22T07:48:15;10.82;;;6.72;;
17372;SDS011;8803;48.116;11.590;2023-06-22T07:50:18;9.15;;;6.87;;
17372;SDS011;8803;48.116;11.590;2023-06-22T07:52:23;11.45;;;7.25;;
17372;SDS011;8803;48.116;11.590;2023-06-22T07:54:27;9.45;;;7.62;;
17372;SDS011;8803;48.116;11.590;2023-06-22T07:56:39;9.98;;;7.08;;
17372;SDS011;8803;48.116;11.590;2023-06-22T07:58:46;9.78;;;7.15;;
17372;SDS011;8803;48.116;11.590;2023-06-22T08:00:58;13.45;;;6.95;;
17372;SDS011;8803;48.116;11.590;2023-06-22T08:03:02;14.20;;;7.22;;
17372;SDS011;8803;48.116;11.590;2023-06-22T08:05:07;12.10;;;6.55;;
17372;SDS011;8803;48.116;11.590;2023-06-22T08:07:19;10.85;;;7.83;;
17372;SDS011;8803;48.116;11.590;2023-06-22T08:09:23;11.35;;;6.90;;
17372;SDS011;8803;48.116;11.590;2023-06-22T08:11:27;8.13;;;6.72;;
17372;SDS011;8803;48.116;11.590;2023-06-22T08:13:31;14.70;;;7.08;;
17372;SDS011;8803;48.116;11.590;2023-06-22T08:15:43;10.38;;;6.92;;
17372;SDS011;8803;48.116;11.590;2023-06-22T08:17:49;11.55;;;6.47;;
17372;SDS011;8803;48.116;11.590;2023-06-22T08:20:02;11.10;;;7.85;;
17372;SDS011;8803;48.116;11.590;2023-06-22T08:22:10;9.70;;;8.03;;
17372;SDS011;8803;48.116;11.590;2023-06-22T08:24:14;10.70;;;7.10;;
17372;SDS011;8803;48.116;11.590;2023-06-22T08:26:18;9.23;;;6.90;;
17372;SDS011;8803;48.116;11.590;2023-06-22T08:28:22;16.40;;;7.65;;
17372;SDS011;8803;48.116;11.590;2023-06-22T08:30:35;11.95;;;7.47;;
17372;SDS011;8803;48.116;11.590;2023-06-22T08:32:39;12.68;;;6.30;;
17372;SDS011;8803;48.116;11.590;2023-06-22T08:34:43;12.10;;;7.42;;
17372;SDS011;8803;48.116;11.590;2023-06-22T08:36:46;12.40;;;7.12;;
17372;SDS011;8803;48.116;11.590;2023-06-22T08:38:52;11.22;;;7.12;;
17372;SDS011;8803;48.116;11.590;2023-06-22T08:41:05;13.00;;;7.47;;
17372;SDS011;8803;48.116;11.590;2023-06-22T08:43:09;14.45;;;7.05;;
17372;SDS011;8803;48.116;11.590;2023-06-22T08:45:13;10.20;;;7.28;;
17372;SDS011;8803;48.116;11.590;2023-06-22T08:47:26;12.65;;;6.92;;
17372;SDS011;8803;48.116;11.590;2023-06-22T08:49:31;15.90;;;7.80;;
17372;SDS011;8803;48.116;11.590;2023-06-22T08:51:36;10.98;;;6.92;;
17372;SDS011;8803;48.116;11.590;2023-06-22T08:53:40;12.98;;;7.35;;
17372;SDS011;8803;48.116;11.590;2023-06-22T08:55:44;14.68;;;7.65;;
17372;SDS011;8803;48.116;11.590;2023-06-22T08:57:56;13.83;;;8.05;;
17372;SDS011;8803;48.116;11.590;2023-06-22T09:00:02;12.33;;;6.50;;
17372;SDS011;8803;48.116;11.590;2023-06-22T09:02:13;11.08;;;6.90;;
17372;SDS011;8803;48.116;11.590;2023-06-22T09:04:18;11.70;;;6.87;;
17372;SDS011;8803;48.116;11.590;2023-06-22T09:08:34;12.95;;;6.80;;
17372;SDS011;8803;48.116;11.590;2023-06-22T09:10:38;16.57;;;7.03;;
17372;SDS011;8803;48.116;11.590;2023-06-22T09:12:51;10.32;;;6.80;;
17372;SDS011;8803;48.116;11.590;2023-06-22T09:14:55;12.50;;;6.95;;
17372;SDS011;8803;48.116;11.590;2023-06-22T09:17:07;15.05;;;7.72;;
17372;SDS011;8803;48.116;11.590;2023-06-22T09:19:11;13.90;;;7.12;;
17372;SDS011;8803;48.116;11.590;2023-06-22T09:21:24;11.05;;;6.72;;
17372;SDS011;8803;48.116;11.590;2023-06-22T09:23:28;9.70;;;6.70;;
17372;SDS011;8803;48.116;11.590;2023-06-22T09:25:32;15.60;;;6.80;;
17372;SDS011;8803;48.116;11.590;2023-06-22T09:27:45;13.85;;;6.97;;
17372;SDS011;8803;48.116;11.590;2023-06-22T09:29:49;14.95;;;7.40;;
17372;SDS011;8803;48.116;11.590;2023-06-22T09:31:53;12.58;;;6.97;;
17372;SDS011;8803;48.116;11.590;2023-06-22T09:33:57;14.35;;;7.33;;
17372;SDS011;8803;48.116;11.590;2023-06-22T09:36:00;12.75;;;7.72;;
17372;SDS011;8803;48.116;11.590;2023-06-22T09:38:13;13.55;;;7.70;;
17372;SDS011;8803;48.116;11.590;2023-06-22T09:40:18;10.93;;;7.95;;
17372;SDS011;8803;48.116;11.590;2023-06-22T09:42:22;12.20;;;6.92;;
17372;SDS011;8803;48.116;11.590;2023-06-22T09:44:27;13.58;;;7.10;;
17372;SDS011;8803;48.116;11.590;2023-06-22T09:46:30;12.75;;;6.80;;
17372;SDS011;8803;48.116;11.590;2023-06-22T09:48:43;17.95;;;8.08;;
17372;SDS011;8803;48.116;11.590;2023-06-22T09:50:47;13.15;;;6.75;;
17372;SDS011;8803;48.116;11.590;2023-06-22T09:52:51;15.08;;;7.80;;
17372;SDS011;8803;48.116;11.590;2023-06-22T09:54:57;10.88;;;6.90;;
17372;SDS011;8803;48.116;11.590;2023-06-22T09:57:01;13.22;;;6.90;;
17372;SDS011;8803;48.116;11.590;2023-06-22T09:59:13;11.20;;;7.33;;
17372;SDS011;8803;48.116;11.590;2023-06-22T10:01:17;14.38;;;7.15;;
17372;SDS011;8803;48.116;11.590;2023-06-22T10:03:22;13.10;;;7.62;;
17372;SDS011;8803;48.116;11.590;2023-06-22T10:05:35;13.95;;;7.40;;
17372;SDS011;8803;48.116;11.590;2023-06-22T10:07:39;13.25;;;7.37;;
17372;SDS011;8803;48.116;11.590;2023-06-22T10:09:51;9.13;;;6.60;;
17372;SDS011;8803;48.116;11.590;2023-06-22T10:11:55;15.00;;;7.35;;
17372;SDS011;8803;48.116;11.590;2023-06-22T10:13:59;13.55;;;7.17;;
17372;SDS011;8803;48.116;11.590;2023-06-22T10:16:05;14.05;;;7.67;;
17372;SDS011;8803;48.116;11.590;2023-06-22T10:18:09;13.68;;;6.75;;
17372;SDS011;8803;48.116;11.590;2023-06-22T10:20:21;12.03;;;6.97;;
17372;SDS011;8803;48.116;11.590;2023-06-22T10:22:27;14.38;;;7.47;;
17372;SDS011;8803;48.116;11.590;2023-06-22T10:24:31;12.95;;;7.05;;
17372;SDS011;8803;48.116;11.590;2023-06-22T10:26:36;12.50;;;7.47;;
17372;SDS011;8803;48.116;11.590;2023-06-22T10:28:49;15.15;;;7.35;;
17372;SDS011;8803;48.116;11.590;2023-06-22T10:30:53;13.38;;;7.25;;
17372;SDS011;8803;48.116;11.590;2023-06-22T10:32:57;16.55;;;7.17;;
17372;SDS011;8803;48.116;11.590;2023-06-22T10:35:01;13.75;;;7.05;;
17372;SDS011;8803;48.116;11.590;2023-06-22T10:37:13;11.93;;;6.80;;
17372;SDS011;8803;48.116;11.590;2023-06-22T10:39:17;10.13;;;6.87;;
17372;SDS011;8803;48.116;11.590;2023-06-22T10:41:21;15.28;;;7.00;;
17372;SDS011;8803;48.116;11.590;2023-06-22T10:43:34;10.75;;;7.10;;
17372;SDS011;8803;48.116;11.590;2023-06-22T10:45:38;11.30;;;8.13;;
17372;SDS011;8803;48.116;11.590;2023-06-22T10:47:50;10.38;;;7.53;;
17372;SDS011;8803;48.116;11.590;2023-06-22T10:49:54;12.35;;;7.53;;
17372;SDS011;8803;48.116;11.590;2023-06-22T10:51:59;15.90;;;7.87;;
17372;SDS011;8803;48.116;11.590;2023-06-22T10:56:14;14.05;;;7.47;;
17372;SDS011;8803;48.116;11.590;2023-06-22T10:58:18;15.80;;;7.70;;
17372;SDS011;8803;48.116;11.590;2023-06-22T11:00:31;12.68;;;7.35;;
17372;SDS011;8803;48.116;11.590;2023-06-22T11:02:35;9.98;;;6.65;;
17372;SDS011;8803;48.116;11.590;2023-06-22T11:04:39;12.98;;;6.83;;
17372;SDS011;8803;48.116;11.590;2023-06-22T11:06:43;14.40;;;7.35;;
17372;SDS011;8803;48.116;11.590;2023-06-22T11:08:55;12.28;;;7.03;;
17372;SDS011;8803;48.116;11.590;2023-06-22T11:10:59;22.73;;;7.85;;
17372;SDS011;8803;48.116;11.590;2023-06-22T11:13:03;16.67;;;6.97;;
17372;SDS011;8803;48.116;11.590;2023-06-22T11:15:09;13.90;;;6.80;;
17372;SDS011;8803;48.116;11.590;2023-06-22T11:17:23;17.00;;;7.50;;
17372;SDS011;8803;48.116;11.590;2023-06-22T11:19:27;14.60;;;7.55;;
17372;SDS011;8803;48.116;11.590;2023-06-22T11:21:39;16.42;;;7.90;;
17372;SDS011;8803;48.116;11.590;2023-06-22T11:23:45;13.20;;;7.00;;
17372;SDS011;8803;48.116;11.590;2023-06-22T11:25:49;15.35;;;7.75;;
17372;SDS011;8803;48.116;11.590;2023-06-22T11:28:02;9.43;;;6.45;;
17372;SDS011;8803;48.116;11.590;2023-06-22T11:30:08;13.40;;;7.90;;
17372;SDS011;8803;48.116;11.590;2023-06-22T11:32:12;14.47;;;7.50;;
17372;SDS011;8803;48.116;11.590;2023-06-22T11:34:25;13.65;;;8.05;;
17372;SDS011;8803;48.116;11.590;2023-06-22T11:36:29;14.47;;;7.58;;
17372;SDS011;8803;48.116;11.590;2023-06-22T11:38:42;11.95;;;7.78;;
17372;SDS011;8803;48.116;11.590;2023-06-22T11:40:46;12.88;;;7.00;;
17372;SDS011;8803;48.116;11.590;2023-06-22T11:42:50;13.68;;;7.10;;
17372;SDS011;8803;48.116;11.590;2023-06-22T11:44:54;12.10;;;7.72;;
17372;SDS011;8803;48.116;11.590;2023-06-22T11:47:06;13.20;;;7.72;;
17372;SDS011;8803;48.116;11.590;2023-06-22T11:49:10;12.75;;;7.12;;
17372;SDS011;8803;48.116;11.590;2023-06-22T11:51:14;12.03;;;6.85;;
17372;SDS011;8803;48.116;11.590;2023-06-22T11:55:29;12.28;;;7.25;;
17372;SDS011;8803;48.116;11.590;2023-06-22T11:57:33;11.55;;;7.10;;
17372;SDS011;8803;48.116;11.590;2023-06-22T11:59:47;12.45;;;7.35;;
17372;SDS011;8803;48.116;11.590;2023-06-22T12:01:51;12.78;;;7.40;;
17372;SDS011;8803;48.116;11.590;2023-06-22T12:03:54;13.20;;;7.37;;
17372;SDS011;8803;48.116;11.590;2023-06-22T12:08:09;14.90;;;7.95;;
17372;SDS011;8803;48.116;11.590;2023-06-22T12:10:14;13.88;;;7.15;;
17372;SDS011;8803;48.116;11.590;2023-06-22T12:12:18;19.23;;;7.67;;
17372;SDS011;8803;48.116;11.590;2023-06-22T12:14:31;14.10;;;8.40;;
17372;SDS011;8803;48.116;11.590;2023-06-22T12:16:35;15.60;;;7.12;;
17372;SDS011;8803;48.116;11.590;2023-06-22T12:18:48;13.58;;;7.12;;
17372;SDS011;8803;48.116;11.590;2023-06-22T12:20:51;13.72;;;8.10;;
17372;SDS011;8803;48.116;11.590;2023-06-22T12:22:55;14.55;;;7.72;;
17372;SDS011;8803;48.116;11.590;2023-06-22T12:24:59;16.17;;;7.67;;
17372;SDS011;8803;48.116;11.590;2023-06-22T12:27:05;17.25;;;7.85;;
17372;SDS011;8803;48.116;11.590;2023-06-22T12:29:18;20.15;;;8.10;;
17372;SDS011;8803;48.116;11.590;2023-06-22T12:31:22;10.93;;;7.10;;
17372;SDS011;8803;48.116;11.590;2023-06-22T12:33:35;20.27;;;7.97;;
17372;SDS011;8803;48.116;11.590;2023-06-22T12:35:39;12.98;;;7.67;;
17372;SDS011;8803;48.116;11.590;2023-06-22T12:37:51;15.40;;;8.70;;
17372;SDS011;8803;48.116;11.590;2023-06-22T12:39:55;16.30;;;7.95;;
17372;SDS011;8803;48.116;11.590;2023-06-22T12:41:59;16.62;;;8.33;;
17372;SDS011;8803;48.116;11.590;2023-06-22T12:44:03;18.27;;;7.95;;
17372;SDS011;8803;48.116;11.590;2023-06-22T12:46:07;17.48;;;7.78;;
17372;SDS011;8803;48.116;11.590;2023-06-22T12:48:11;13.18;;;7.05;;
17372;SDS011;8803;48.116;11.590;2023-06-22T12:50:24;11.25;;;7.15;;
17372;SDS011;8803;48.116;11.590;2023-06-22T12:52:29;12.63;;;7.35;;
17372;SDS011;8803;48.116;11.590;2023-06-22T12:54:42;12.47;;;6.67;;
17372;SDS011;8803;48.116;11.590;2023-06-22T12:56:46;10.85;;;6.87;;
17372;SDS011;8803;48.116;11.590;2023-06-22T12:58:58;12.15;;;6.50;;
17372;SDS011;8803;48.116;11.590;2023-06-22T13:01:02;15.08;;;7.35;;